Time;durP1;ratioP1;P1;durP2;ratioP2;P2;SDS_P1;SDS_P2;PMS_P1;PMS_P2;Temp;Humidity;BMP_temperature;BMP_pressure;BME280_temperature;BME280_humidity;BME280_pressure;Samples;Min_cycle;Max_cycle;Signal;HPM_P1;HPM_P2
2023/01/22 00:01:56;;;;;;;24.63;14.17;;;;;;;;;;5012271;28;20389;-86
2023/01/22 00:04:21;;;;;;;24.13;13.67;;;;;;;;;;5029133;28;20622;-86
2023/01/22 00:06:46;;;;;;;25.00;14.47;;;;;;;;;;5029346;28;20298;-87
2023/01/22 00:09:12;;;;;;;22.40;13.30;;;;;;;;;;5027105;28;20368;-85
2023/01/22 00:11:37;;;;;;;20.73;13.00;;;;;;;;;;5005982;28;20666;-86
2023/01/22 00:14:02;;;;;;;19.70;12.60;;;;;;;;;;5012822;28;20363;-85
2023/01/22 00:16:27;;;;;;;24.13;13.77;;;;;;;;;;5029289;28;20052;-86
2023/01/22 00:18:53;;;;;;;23.10;13.73;;;;;;;;;;5033478;28;20150;-86
2023/01/22 00:21:18;;;;;;;21.02;12.75;;;;;;;;;;5024218;28;20288;-86
2023/01/22 00:23:43;;;;;;;23.25;13.38;;;;;;;;;;5033632;28;20070;-87
2023/01/22 00:26:10;;;;;;;23.63;13.87;;;;;;;;;;5012451;28;20065;-86
2023/01/22 00:28:36;;;;;;;21.88;12.50;;;;;;;;;;5029825;28;20338;-86
2023/01/22 00:31:02;;;;;;;19.73;11.73;;;;;;;;;;5025157;28;20048;-87
2023/01/22 00:33:28;;;;;;;24.27;13.65;;;;;;;;;;5008668;28;20037;-87
2023/01/22 00:35:53;;;;;;;20.90;12.70;;;;;;;;;;5025535;28;20041;-86
2023/01/22 00:38:18;;;;;;;25.00;13.83;;;;;;;;;;5010691;28;20044;-86
2023/01/22 00:40:50;;;;;;;19.20;12.53;;;;;;;;;;5005533;28;20284;-86
2023/01/22 00:43:15;;;;;;;19.52;11.98;;;;;;;;;;5013128;28;20300;-87
2023/01/22 00:45:40;;;;;;;22.88;13.93;;;;;;;;;;5031240;28;20044;-87
2023/01/22 00:48:06;;;;;;;21.42;12.63;;;;;;;;;;5008441;28;20038;-86
2023/01/22 00:50:31;;;;;;;24.00;14.13;;;;;;;;;;5026285;28;20060;-86
2023/01/22 00:52:56;;;;;;;18.67;11.57;;;;;;;;;;5008612;28;20312;-86
2023/01/22 00:55:21;;;;;;;22.20;13.48;;;;;;;;;;5027522;28;20383;-87
2023/01/22 00:57:47;;;;;;;22.20;14.10;;;;;;;;;;5006441;28;20528;-86
2023/01/22 01:00:16;;;;;;;22.27;13.43;;;;;;;;;;5026618;28;20071;-86
2023/01/22 01:05:26;;;;;;;25.48;13.88;;;;;;;;;;5027703;28;20056;-86
2023/01/22 01:07:51;;;;;;;24.47;13.30;;;;;;;;;;5011313;28;20033;-87
2023/01/22 01:10:16;;;;;;;21.33;12.18;;;;;;;;;;5018983;28;20815;-86
2023/01/22 01:12:41;;;;;;;24.13;13.63;;;;;;;;;;5013097;28;20035;-86
2023/01/22 01:15:07;;;;;;;23.08;13.48;;;;;;;;;;5012787;28;20304;-86
2023/01/22 01:17:33;;;;;;;22.83;13.73;;;;;;;;;;5025375;28;20041;-87
2023/01/22 01:19:59;;;;;;;20.58;11.82;;;;;;;;;;5027206;28;20665;-85
2023/01/22 01:22:25;;;;;;;23.55;13.75;;;;;;;;;;5022101;28;20041;-85
2023/01/22 01:24:50;;;;;;;20.83;12.60;;;;;;;;;;5031627;28;20499;-86
2023/01/22 01:27:16;;;;;;;21.58;12.38;;;;;;;;;;5015738;28;20038;-87
2023/01/22 01:29:42;;;;;;;18.60;12.13;;;;;;;;;;4996022;28;20037;-88
2023/01/22 01:32:07;;;;;;;20.42;12.38;;;;;;;;;;4994670;28;20113;-88
2023/01/22 01:34:32;;;;;;;21.35;13.75;;;;;;;;;;4994704;28;20164;-86
2023/01/22 01:36:58;;;;;;;23.40;13.95;;;;;;;;;;5028742;28;20049;-86
2023/01/22 01:39:23;;;;;;;26.33;14.43;;;;;;;;;;5012556;28;20037;-86
2023/01/22 01:41:49;;;;;;;24.23;13.27;;;;;;;;;;5013975;28;20048;-86
2023/01/22 01:44:16;;;;;;;19.25;11.07;;;;;;;;;;5011267;28;20347;-86
2023/01/22 01:46:44;;;;;;;21.70;13.02;;;;;;;;;;5030117;28;20103;-86
2023/01/22 01:49:14;;;;;;;19.98;11.57;;;;;;;;;;5029841;28;20033;-86
2023/01/22 01:51:39;;;;;;;22.27;13.32;;;;;;;;;;5007659;28;20053;-86
2023/01/22 01:54:05;;;;;;;22.07;12.77;;;;;;;;;;5013286;28;20034;-86
2023/01/22 01:56:33;;;;;;;21.45;12.35;;;;;;;;;;5011289;28;20288;-86
2023/01/22 01:59:01;;;;;;;24.05;12.98;;;;;;;;;;5030604;28;20095;-87
2023/01/22 02:01:26;;;;;;;24.58;14.32;;;;;;;;;;5012272;28;20041;-87
2023/01/22 02:03:52;;;;;;;20.42;12.40;;;;;;;;;;5008285;28;20091;-88
2023/01/22 02:06:17;;;;;;;21.08;12.68;;;;;;;;;;5010973;28;20026;-87
2023/01/22 02:08:44;;;;;;;23.15;13.50;;;;;;;;;;5007125;28;20381;-88
2023/01/22 02:11:10;;;;;;;22.02;13.05;;;;;;;;;;5030189;28;20029;-87
2023/01/22 02:13:37;;;;;;;19.20;11.60;;;;;;;;;;5014748;28;20156;-88
2023/01/22 02:16:04;;;;;;;21.73;12.00;;;;;;;;;;5014091;28;20533;-87
2023/01/22 02:18:29;;;;;;;18.50;11.63;;;;;;;;;;5013988;28;20395;-87
2023/01/22 02:20:56;;;;;;;18.48;11.43;;;;;;;;;;5014241;28;20041;-87
2023/01/22 02:23:21;;;;;;;22.27;11.93;;;;;;;;;;5014680;28;20053;-88
2023/01/22 02:25:47;;;;;;;19.33;11.40;;;;;;;;;;5017384;28;20033;-87
2023/01/22 02:28:12;;;;;;;20.17;12.30;;;;;;;;;;5018476;28;20034;-87
2023/01/22 02:30:37;;;;;;;19.80;12.48;;;;;;;;;;5017394;28;20088;-88
2023/01/22 02:33:03;;;;;;;20.02;12.15;;;;;;;;;;5017168;28;20055;-87
2023/01/22 02:35:28;;;;;;;18.98;11.48;;;;;;;;;;5017680;28;20037;-88
2023/01/22 02:37:53;;;;;;;18.90;10.77;;;;;;;;;;5017862;28;20495;-87
2023/01/22 02:40:18;;;;;;;16.52;9.80;;;;;;;;;;5016213;28;20757;-87
2023/01/22 02:42:44;;;;;;;16.92;10.30;;;;;;;;;;5016911;28;20044;-88
2023/01/22 02:45:09;;;;;;;17.67;10.25;;;;;;;;;;5017192;28;20029;-87
2023/01/22 02:47:35;;;;;;;15.38;9.73;;;;;;;;;;5016978;28;20495;-88
2023/01/22 02:50:01;;;;;;;14.98;9.20;;;;;;;;;;5016941;28;20064;-87
2023/01/22 02:52:26;;;;;;;16.65;9.82;;;;;;;;;;5016214;28;20130;-88
2023/01/22 02:54:51;;;;;;;13.83;8.50;;;;;;;;;;5016849;28;20048;-87
2023/01/22 02:57:16;;;;;;;14.47;8.83;;;;;;;;;;5016733;28;20281;-87
2023/01/22 02:59:42;;;;;;;13.33;8.73;;;;;;;;;;5016885;28;20273;-87
2023/01/22 03:02:07;;;;;;;12.47;7.60;;;;;;;;;;5015944;28;20347;-88
2023/01/22 03:04:32;;;;;;;13.43;7.32;;;;;;;;;;5016589;28;20758;-88
2023/01/22 03:06:57;;;;;;;12.93;8.18;;;;;;;;;;5016549;28;20034;-87
2023/01/22 03:09:23;;;;;;;11.50;6.70;;;;;;;;;;5016993;28;20033;-89
2023/01/22 03:11:48;;;;;;;12.88;7.80;;;;;;;;;;5017409;28;20356;-88
2023/01/22 03:22:35;;;;;;;10.88;6.55;;;;;;;;;;5033857;28;20064;-89
2023/01/22 03:25:01;;;;;;;9.80;6.20;;;;;;;;;;5016709;28;20158;-88
2023/01/22 03:27:27;;;;;;;11.50;6.85;;;;;;;;;;5016770;28;20371;-88
2023/01/22 03:29:52;;;;;;;10.45;6.00;;;;;;;;;;5017457;28;20037;-88
2023/01/22 03:32:17;;;;;;;10.15;6.30;;;;;;;;;;5017045;28;20046;-88
2023/01/22 03:34:43;;;;;;;11.63;7.10;;;;;;;;;;5017537;28;20025;-88
2023/01/22 03:37:11;;;;;;;11.57;6.95;;;;;;;;;;5017744;28;20041;-89
2023/01/22 03:39:36;;;;;;;9.63;6.35;;;;;;;;;;5033303;28;20033;-93
2023/01/22 03:42:01;;;;;;;10.50;6.60;;;;;;;;;;5032135;28;20034;-93
2023/01/22 03:44:27;;;;;;;10.80;6.87;;;;;;;;;;5016534;28;20117;-88
2023/01/22 03:46:52;;;;;;;9.83;6.07;;;;;;;;;;5016456;28;20411;-88
2023/01/22 03:49:17;;;;;;;9.40;6.22;;;;;;;;;;5016136;28;20394;-88
2023/01/22 03:51:43;;;;;;;9.68;6.30;;;;;;;;;;5015881;28;20037;-88
2023/01/22 03:54:11;;;;;;;11.30;7.13;;;;;;;;;;5015481;28;20396;-88
2023/01/22 03:56:36;;;;;;;12.05;7.25;;;;;;;;;;5015299;28;20068;-88
2023/01/22 03:59:01;;;;;;;9.40;6.40;;;;;;;;;;5015205;28;20045;-88
2023/01/22 04:01:27;;;;;;;10.52;6.88;;;;;;;;;;5014673;28;20030;-90
2023/01/22 04:03:52;;;;;;;11.00;6.63;;;;;;;;;;5015564;28;20041;-88
2023/01/22 04:06:18;;;;;;;15.57;8.88;;;;;;;;;;5014992;28;20030;-88
2023/01/22 04:08:45;;;;;;;11.18;7.32;;;;;;;;;;5015624;28;20063;-88
2023/01/22 04:11:10;;;;;;;9.68;6.20;;;;;;;;;;5015514;28;20050;-88
2023/01/22 04:13:36;;;;;;;9.48;6.43;;;;;;;;;;5015152;28;20061;-88
2023/01/22 04:16:01;;;;;;;12.02;7.60;;;;;;;;;;5015436;28;20606;-89
2023/01/22 04:18:27;;;;;;;11.63;7.50;;;;;;;;;;5015104;28;20044;-87
2023/01/22 04:20:52;;;;;;;13.07;7.75;;;;;;;;;;5015033;28;20033;-88
2023/01/22 04:23:18;;;;;;;11.07;6.80;;;;;;;;;;5032947;28;20060;-88
2023/01/22 04:25:44;;;;;;;10.50;6.88;;;;;;;;;;5015377;28;20068;-88
2023/01/22 04:28:09;;;;;;;13.13;7.63;;;;;;;;;;5013961;28;20049;-88
2023/01/22 04:30:35;;;;;;;12.50;7.38;;;;;;;;;;5032101;28;20499;-88
2023/01/22 04:33:00;;;;;;;9.88;6.43;;;;;;;;;;5014411;28;20446;-88
2023/01/22 04:35:26;;;;;;;13.10;7.60;;;;;;;;;;5013759;28;20538;-88
2023/01/22 04:37:51;;;;;;;9.57;6.10;;;;;;;;;;5014181;28;20269;-89
2023/01/22 04:40:16;;;;;;;10.53;6.80;;;;;;;;;;5013564;28;20280;-90
2023/01/22 04:42:41;;;;;;;9.57;5.85;;;;;;;;;;5013776;28;20283;-87
2023/01/22 04:45:07;;;;;;;10.20;6.03;;;;;;;;;;5013828;28;20088;-89
2023/01/22 04:47:32;;;;;;;9.82;6.30;;;;;;;;;;5013528;28;20276;-88
2023/01/22 04:49:57;;;;;;;9.88;6.30;;;;;;;;;;5012911;28;20125;-89
2023/01/22 04:52:23;;;;;;;10.15;6.47;;;;;;;;;;5009732;28;20070;-89
2023/01/22 04:54:50;;;;;;;10.87;7.17;;;;;;;;;;5010490;28;20088;-88
2023/01/22 04:57:15;;;;;;;9.90;6.35;;;;;;;;;;5030041;28;20046;-89
2023/01/22 04:59:41;;;;;;;8.73;5.70;;;;;;;;;;5013115;28;20503;-88
2023/01/22 05:02:06;;;;;;;9.37;6.20;;;;;;;;;;5012545;28;20032;-88
2023/01/22 05:04:31;;;;;;;8.13;5.47;;;;;;;;;;5012816;28;20265;-89
2023/01/22 05:06:56;;;;;;;7.93;5.20;;;;;;;;;;5013074;28;20312;-89
2023/01/22 05:09:23;;;;;;;9.47;6.33;;;;;;;;;;5012647;28;20065;-88
2023/01/22 05:11:48;;;;;;;9.43;6.22;;;;;;;;;;5012747;28;20041;-88
2023/01/22 05:14:13;;;;;;;8.25;6.07;;;;;;;;;;5012611;28;20042;-88
2023/01/22 05:16:39;;;;;;;7.87;5.70;;;;;;;;;;5012972;28;20116;-88
2023/01/22 05:19:04;;;;;;;9.77;6.60;;;;;;;;;;5013390;28;20272;-89
2023/01/22 05:21:29;;;;;;;8.90;5.90;;;;;;;;;;5012109;28;20091;-88
2023/01/22 05:23:54;;;;;;;8.67;6.03;;;;;;;;;;5013094;28;20030;-89
2023/01/22 05:26:20;;;;;;;7.63;4.90;;;;;;;;;;5009273;28;20417;-88
2023/01/22 05:28:45;;;;;;;8.18;5.63;;;;;;;;;;4993101;28;20273;-88
2023/01/22 05:31:10;;;;;;;10.73;5.90;;;;;;;106.33;100.00;87209.31;5011660;28;20065;-88
2023/01/22 05:33:36;;;;;;;8.60;5.60;;;;;;;;;;5012356;28;20049;-88
2023/01/22 05:36:01;;;;;;;7.97;5.28;;;;;;;;;;5020529;28;20037;-88
2023/01/22 05:38:27;;;;;;;7.00;5.10;;;;;;;;;;5011741;28;20060;-88
2023/01/22 05:40:52;;;;;;;7.25;4.78;;;;;;;;;;5012234;28;20510;-89
2023/01/22 05:43:18;;;;;;;7.63;5.05;;;;;;;;;;5012490;28;20591;-88
2023/01/22 05:45:43;;;;;;;7.97;5.20;;;;;;;;;;5012651;28;20030;-89
2023/01/22 05:48:08;;;;;;;8.30;4.93;;;;;;;;;;5012701;28;20041;-88
2023/01/22 05:50:33;;;;;;;7.82;5.32;;;;;;;;;;5012239;28;20040;-88
2023/01/22 05:52:59;;;;;;;9.18;6.18;;;;;;;;;;5012947;28;20395;-87
2023/01/22 05:55:24;;;;;;;9.05;5.60;;;;;;;;;;5012543;28;20061;-89
2023/01/22 05:57:49;;;;;;;8.65;5.25;;;;;;;;;;5012317;28;20503;-89
2023/01/22 06:00:15;;;;;;;6.50;4.70;;;;;;;;;;5011901;28;20037;-89
2023/01/22 06:02:40;;;;;;;6.20;4.53;;;;;;;;;;5032875;28;20102;-88
2023/01/22 06:05:05;;;;;;;6.33;4.37;;;;;;;;;;5015773;28;20048;-88
2023/01/22 06:07:31;;;;;;;7.30;4.65;;;;;;;;;;5031554;28;20276;-88
2023/01/22 06:09:56;;;;;;;5.30;3.40;;;;;;;;;;5014816;28;20430;-88
2023/01/22 06:12:21;;;;;;;5.37;3.90;;;;;;;;;;5031963;28;20789;-88
2023/01/22 06:14:46;;;;;;;5.50;3.90;;;;;;;;;;5014138;28;20786;-88
2023/01/22 06:17:12;;;;;;;5.57;4.00;;;;;;;;;;5032977;28;20107;-88
2023/01/22 06:19:37;;;;;;;5.05;3.67;;;;;;;;;;5032618;28;20491;-88
2023/01/22 06:22:02;;;;;;;5.43;3.80;;;;;;;22.46;100.00;87062.63;5030534;28;20045;-88
2023/01/22 06:24:28;;;;;;;7.65;5.75;;;;;;;;;;5014694;28;20352;-88
2023/01/22 06:26:53;;;;;;;7.20;5.10;;;;;;;-145.28;60.93;65941.84;5032375;28;20829;-88
2023/01/22 06:29:18;;;;;;;6.97;5.00;;;;;;;;;;5015088;28;20836;-88
2023/01/22 06:31:43;;;;;;;6.53;5.07;;;;;;;;;;5014321;28;20623;-88
2023/01/22 06:34:09;;;;;;;8.37;5.10;;;;;;;;;;5013942;28;20120;-88
2023/01/22 06:36:34;;;;;;;7.97;4.85;;;;;;;;;;5031947;28;20383;-88
2023/01/22 06:38:59;;;;;;;6.30;4.53;;;;;;;;;;5014377;28;20051;-88
2023/01/22 06:41:24;;;;;;;6.65;4.43;;;;;;;;;;5032007;28;20658;-88
2023/01/22 06:43:50;;;;;;;5.53;4.17;;;;;;;;;;5014474;28;20038;-88
2023/01/22 06:46:15;;;;;;;5.37;3.97;;;;;;;;;;5013672;28;20271;-88
2023/01/22 06:48:42;;;;;;;5.40;3.53;;;;;;;;;;5014323;28;20276;-88
2023/01/22 06:51:08;;;;;;;5.35;3.42;;;;;;;;;;5031934;28;20036;-89
2023/01/22 06:53:33;;;;;;;5.28;3.60;;;;;;;;;;5013672;28;20499;-88
2023/01/22 06:55:59;;;;;;;5.75;4.10;;;;;;;;;;5014205;28;20037;-88
2023/01/22 06:58:24;;;;;;;5.20;3.72;;;;;;;;;;5010419;28;20676;-88
2023/01/22 07:00:49;;;;;;;5.07;3.35;;;;;;;;;;5030064;28;20030;-89
2023/01/22 07:03:14;;;;;;;5.40;3.70;;;;;;;;;;5016593;28;20107;-88
2023/01/22 07:05:39;;;;;;;6.07;4.40;;;;;;;;;;5017249;28;20793;-89
2023/01/22 07:08:05;;;;;;;6.50;4.63;;;;;;;;;;5016145;28;20757;-88
2023/01/22 07:10:30;;;;;;;6.93;5.10;;;;;;;;;;5003154;28;21033;-88
2023/01/22 07:12:57;;;;;;;8.80;5.32;;;;;;;;;;5003209;28;20105;-89
2023/01/22 07:15:23;;;;;;;7.32;5.18;;;;;;;;;;5015020;28;20117;-89
2023/01/22 07:17:52;;;;;;;6.97;4.90;;;;;;;;;;5033322;28;20068;-88
2023/01/22 07:20:18;;;;;;;6.30;4.30;;;;;;;;;;5012687;28;20581;-89
2023/01/22 07:22:43;;;;;;;6.65;4.50;;;;;;;;;;5013689;28;20499;-88
2023/01/22 07:25:08;;;;;;;5.28;4.10;;;;;;;;;;5031575;28;20029;-89
2023/01/22 07:27:34;;;;;;;5.72;4.45;;;;;;;;;;5031289;28;20530;-88
2023/01/22 07:30:00;;;;;;;6.20;4.10;;;;;;;-145.28;100.00;87231.69;5012942;28;20037;-88
2023/01/22 07:32:25;;;;;;;7.00;4.55;;;;;;;;;;5012258;28;20049;-88
2023/01/22 07:34:50;;;;;;;6.60;4.65;;;;;;;;;;5013577;28;20044;-88
2023/01/22 07:37:16;;;;;;;6.68;4.50;;;;;;;;;;5013542;28;20033;-88
2023/01/22 07:39:41;;;;;;;7.95;4.75;;;;;;;;;;5012912;28;20037;-88
2023/01/22 07:42:06;;;;;;;7.50;4.75;;;;;;;;;;5012874;28;20040;-88
2023/01/22 07:44:31;;;;;;;6.00;4.22;;;;;;;;;;5014347;28;20052;-88
2023/01/22 07:46:57;;;;;;;5.30;3.88;;;;;;;;;;5013389;28;20037;-88
2023/01/22 07:49:22;;;;;;;5.63;3.60;;;;;;;;;;5032187;28;20065;-88
2023/01/22 07:51:47;;;;;;;6.18;4.15;;;;;;;;;;5013930;28;20326;-87
2023/01/22 07:54:12;;;;;;;5.77;4.13;;;;;;;;;;5013393;28;20048;-87
2023/01/22 07:56:38;;;;;;;5.55;4.10;;;;;;;;;;5013978;28;20283;-88
2023/01/22 07:59:10;;;;;;;5.57;3.83;;;;;;;;;;5014839;28;20065;-88
2023/01/22 08:01:35;;;;;;;6.05;4.35;;;;;;;;;;5005041;28;20045;-88
2023/01/22 08:04:01;;;;;;;6.43;4.47;;;;;;;;;;5026503;28;20037;-88
2023/01/22 08:06:26;;;;;;;6.13;4.20;;;;;;;;;;5010424;28;20099;-87
2023/01/22 08:08:51;;;;;;;6.53;4.50;;;;;;;;;;5048024;28;20310;-89
2023/01/22 08:11:16;;;;;;;5.87;4.37;;;;;;;;;;5014365;28;20054;-88
2023/01/22 08:13:42;;;;;;;7.72;4.85;;;;;;;;;;5013470;28;20832;-87
2023/01/22 08:16:08;;;;;;;8.20;5.50;;;;;;;-145.28;100.00;66088.38;5022095;28;20044;-87
2023/01/22 08:18:33;;;;;;;7.18;5.35;;;;;;;;;;5023281;28;20272;-89
2023/01/22 08:20:59;;;;;;;8.27;5.75;;;;;;;;;;5032267;28;20093;-87
2023/01/22 08:23:26;;;;;;;7.88;5.40;;;;;;;;;;5032591;28;20056;-88
2023/01/22 08:25:51;;;;;;;7.63;5.78;;;;;;;;;;5048060;28;20037;-89
2023/01/22 08:28:16;;;;;;;8.27;6.00;;;;;;;;;;5026256;28;20036;-87
2023/01/22 08:30:42;;;;;;;7.60;4.77;;;;;;;;;;5054069;28;20273;-88
2023/01/22 08:33:07;;;;;;;6.70;4.95;;;;;;;;;;5036062;28;20089;-87
2023/01/22 08:35:32;;;;;;;7.63;5.70;;;;;;;;;;5054083;28;20041;-87
2023/01/22 08:37:58;;;;;;;6.37;4.93;;;;;;;;;;5027772;28;20036;-88
2023/01/22 08:40:23;;;;;;;5.30;4.20;;;;;;;;;;5018929;28;20383;-85
2023/01/22 08:42:49;;;;;;;8.73;5.40;;;;;;;;;;5019018;28;20518;-87
2023/01/22 08:45:15;;;;;;;8.63;5.53;;;;;;;;;;5019608;28;20033;-86
2023/01/22 08:47:40;;;;;;;7.03;5.10;;;;;;;;;;5004998;28;20041;-87
2023/01/22 08:50:05;;;;;;;7.13;5.40;;;;;;;;;;5009144;28;20045;-86
2023/01/22 08:52:30;;;;;;;7.32;5.45;;;;;;;;;;5015146;28;20453;-86
2023/01/22 08:54:57;;;;;;;9.10;6.47;;;;;;;;;;5023240;28;20038;-86
2023/01/22 08:57:22;;;;;;;8.15;6.20;;;;;;;;;;5030619;28;20320;-86
2023/01/22 08:59:47;;;;;;;7.57;5.40;;;;;;;;;;5013331;28;20060;-85
2023/01/22 09:02:12;;;;;;;7.37;5.43;;;;;;;;;;5002593;28;20324;-86
2023/01/22 09:04:37;;;;;;;7.77;5.70;;;;;;;;;;5007487;28;20277;-86
2023/01/22 09:07:03;;;;;;;9.13;6.20;;;;;;;;;;5028508;28;20052;-86
2023/01/22 09:09:28;;;;;;;8.45;5.70;;;;;;;;;;5013146;28;20280;-87
2023/01/22 09:11:53;;;;;;;8.00;5.87;;;;;;;;;;5012713;28;20064;-87
2023/01/22 09:14:18;;;;;;;9.88;5.90;;;;;;;;;;5021699;28;20745;-87
2023/01/22 09:16:44;;;;;;;8.40;5.33;;;;;;;;;;5008703;28;20045;-86
2023/01/22 09:19:09;;;;;;;8.43;6.40;;;;;;;;;;5028088;28;20407;-86
2023/01/22 09:21:36;;;;;;;7.43;5.30;;;;;;;;;;5010030;28;20786;-87
2023/01/22 09:24:01;;;;;;;10.93;5.88;;;;;;;;;;5027918;28;20531;-87
2023/01/22 09:26:26;;;;;;;7.85;5.90;;;;;;;;;;5011265;28;20124;-87
2023/01/22 09:28:51;;;;;;;9.57;6.30;;;;;;;;;;5025270;28;20037;-86
2023/01/22 09:31:17;;;;;;;8.87;5.83;;;;;;;;;;5011414;28;20600;-85
2023/01/22 09:33:42;;;;;;;9.43;6.20;;;;;;;;;;5010757;28;20038;-86
2023/01/22 09:36:08;;;;;;;17.60;11.03;;;;;;;;;;5011701;28;20037;-86
2023/01/22 09:38:33;;;;;;;17.05;11.13;;;;;;;;;;5015448;28;20307;-85
2023/01/22 09:41:01;;;;;;;12.90;8.97;;;;;;;;;;5031401;28;20061;-85
2023/01/22 09:43:35;;;;;;;9.38;6.97;;;;;;;;;;5011813;28;20042;-86
2023/01/22 09:46:02;;;;;;;8.65;6.22;;;;;;;;;;5009455;28;20084;-84
2023/01/22 09:48:38;;;;;;;15.18;8.32;;;;;;;;;;5014084;28;20104;-85
2023/01/22 09:51:04;;;;;;;11.52;6.53;;;;;;;;;;5010412;28;20042;-85
2023/01/22 09:53:29;;;;;;;7.00;5.63;;;;;;;;;;5021920;28;20037;-85
2023/01/22 09:55:56;;;;;;;11.10;6.22;;;;;;;;;;5030465;28;20042;-86
2023/01/22 09:58:22;;;;;;;9.25;6.70;;;;;;;;;;5010794;28;20588;-85
2023/01/22 10:00:50;;;;;;;8.45;6.05;;;;;;;;;;5018671;28;20037;-86
2023/01/22 10:03:31;;;;;;;7.60;5.90;;;;;;;;;;5030889;28;20041;-85
2023/01/22 10:05:59;;;;;;;10.40;7.18;;;;;;;;;;5023260;28;20042;-85
2023/01/22 10:08:27;;;;;;;7.97;5.88;;;;;;;;;;5019061;28;20057;-85
2023/01/22 10:10:52;;;;;;;7.38;5.32;;;;;;;;;;5031863;28;20036;-84
2023/01/22 10:13:22;;;;;;;7.43;5.37;;;;;;;;;;5014729;28;20053;-84
2023/01/22 10:15:48;;;;;;;7.40;5.47;;;;;;;;;;5019050;28;20045;-85
2023/01/22 10:18:19;;;;;;;9.80;6.28;;;;;;;;;;5031368;28;20034;-85
2023/01/22 10:20:44;;;;;;;10.10;5.80;;;;;;;;;;5005252;28;20041;-84
2023/01/22 10:23:15;;;;;;;7.60;5.40;;;;;;;;;;5030550;28;20091;-84
2023/01/22 10:25:41;;;;;;;7.38;5.18;;;;;;;;;;5031499;28;20025;-83
2023/01/22 10:28:06;;;;;;;6.68;5.80;;;;;;;;;;5028247;28;20034;-85
2023/01/22 10:30:32;;;;;;;7.43;6.00;;;;;;;;;;5011595;28;20045;-83
2023/01/22 10:33:04;;;;;;;6.23;4.40;;;;;;;;;;5028529;28;20083;-84
2023/01/22 10:35:30;;;;;;;9.43;6.22;;;;;;;;;;5011592;28;20289;-83
2023/01/22 10:37:56;;;;;;;23.90;14.88;;;;;;;;;;5012623;28;20064;-84
2023/01/22 10:40:21;;;;;;;27.63;16.35;;;;;;;;;;5012348;28;20061;-83
2023/01/22 10:42:58;;;;;;;28.83;15.35;;;;;;;;;;5019365;28;20038;-86
2023/01/22 10:45:23;;;;;;;31.75;17.98;;;;;;;;;;5010720;28;20045;-85
2023/01/22 10:47:48;;;;;;;22.37;12.77;;;;;;;;;;5014847;28;20102;-83
2023/01/22 10:50:14;;;;;;;15.97;10.20;;;;;;;;;;5013138;28;20036;-83
2023/01/22 10:52:50;;;;;;;14.73;8.30;;;;;;;;;;5011309;28;20037;-83
2023/01/22 10:55:23;;;;;;;30.92;16.10;;;;;;;;;;5032017;28;20040;-84
2023/01/22 10:57:53;;;;;;;34.22;16.30;;;;;;;;;;5028600;28;20057;-84
2023/01/22 11:00:18;;;;;;;36.95;16.08;;;;;;;;;;5013050;28;20093;-84
2023/01/22 11:02:45;;;;;;;65.70;24.30;;;;;;;;;;5012847;28;20116;-87
2023/01/22 11:05:19;;;;;;;47.95;18.83;;;;;;;;;;5013208;28;20543;-84
2023/01/22 11:07:46;;;;;;;113.60;33.40;;;;;;;;;;5028929;28;20037;-84
2023/01/22 11:10:21;;;;;;;86.68;30.02;;;;;;;;;;5006673;28;20046;-85
2023/01/22 11:12:52;;;;;;;111.35;37.28;;;;;;;;;;5007723;28;20116;-84
2023/01/22 11:15:37;;;;;;;75.72;25.50;;;;;;;;;;5016471;28;20116;-85
2023/01/22 11:18:03;;;;;;;43.92;17.52;;;;;;;;;;5029861;28;20052;-84
2023/01/22 11:20:31;;;;;;;22.23;10.30;;;;;;;;;;5029979;28;20068;-84
2023/01/22 11:22:59;;;;;;;19.45;8.57;;;;;;;;;;5013640;28;20056;-84
2023/01/22 11:25:26;;;;;;;11.73;6.80;;;;;;;;;;5028816;28;20041;-85
2023/01/22 11:28:12;;;;;;;11.63;6.97;;;;;;;;;;5012621;28;20033;-84
2023/01/22 11:30:47;;;;;;;11.05;6.95;;;;;;;;;;5028699;28;20156;-85
2023/01/22 11:33:31;;;;;;;10.85;6.85;;;;;;;;;;5010586;28;20059;-84
2023/01/22 11:36:15;;;;;;;9.10;6.72;;;;;;;;;;5010838;28;20038;-85
2023/01/22 11:38:46;;;;;;;10.25;6.70;;;;;;;;;;5011588;28;20042;-84
2023/01/22 11:41:26;;;;;;;10.18;7.43;;;;;;;;;;5011205;28;20037;-85
2023/01/22 11:44:03;;;;;;;9.07;6.38;;;;;;;;;;5025602;28;20033;-85
2023/01/22 11:46:43;;;;;;;9.20;5.93;;;;;;;;;;5011553;28;20133;-85
2023/01/22 11:49:11;;;;;;;6.10;4.95;;;;;;;;;;5026952;28;20041;-84
2023/01/22 11:51:36;;;;;;;6.03;4.60;;;;;;;;;;5031285;28;20124;-84
2023/01/22 11:54:10;;;;;;;7.28;4.78;;;;;;;;;;5011227;28;20459;-85
2023/01/22 11:56:56;;;;;;;6.93;4.70;;;;;;;;;;5013371;28;20523;-84
2023/01/22 11:59:27;;;;;;;8.80;5.82;;;;;;;;;;5009335;28;20037;-85
2023/01/22 12:02:04;;;;;;;9.10;6.45;;;;;;;;;;5013408;28;20046;-84
2023/01/22 12:04:39;;;;;;;10.50;7.97;;;;;;;;;;5011780;28;20048;-84
2023/01/22 12:07:11;;;;;;;9.18;6.35;;;;;;;;;;5012660;28;20120;-84
2023/01/22 12:09:36;;;;;;;8.40;6.05;;;;;;;;;;5009557;28;20049;-84
2023/01/22 12:12:01;;;;;;;7.65;5.75;;;;;;;;;;5005109;28;20073;-84
2023/01/22 12:14:44;;;;;;;8.35;5.40;;;;;;;;;;5029799;28;20042;-83
2023/01/22 12:17:16;;;;;;;7.75;5.35;;;;;;;;;;5030513;28;20061;-83
2023/01/22 12:19:47;;;;;;;7.85;5.32;;;;;;;;;;5037610;28;20037;-83
2023/01/22 12:22:15;;;;;;;7.55;5.60;;;;;;;;;;5026733;28;20534;-83
2023/01/22 12:24:40;;;;;;;6.82;5.32;;;;;;;;;;5011272;28;20128;-82
2023/01/22 12:27:08;;;;;;;7.40;5.72;;;;;;;;;;5012393;28;20513;-82
2023/01/22 12:29:50;;;;;;;8.27;6.13;;;;;;;;;;5037086;28;20041;-83
2023/01/22 12:32:17;;;;;;;9.73;6.05;;;;;;;;;;5015268;28;20105;-83
2023/01/22 12:34:55;;;;;;;7.70;5.80;;;;;;;;;;5017331;28;20106;-85
2023/01/22 12:37:24;;;;;;;9.07;6.47;;;;;;;;;;5014108;28;20072;-85
2023/01/22 12:39:49;;;;;;;10.35;6.88;;;;;;;;;;5014190;28;20064;-85
2023/01/22 12:42:14;;;;;;;12.73;8.27;;;;;;;;;;5034229;28;20551;-85
2023/01/22 12:44:55;;;;;;;8.95;6.30;;;;;;;;;;5013150;28;20040;-85
2023/01/22 12:47:25;;;;;;;7.60;5.47;;;;;;;;;;5033139;28;20051;-86
2023/01/22 12:49:51;;;;;;;8.68;6.00;;;;;;;;;;5013441;28;20041;-85
2023/01/22 12:52:27;;;;;;;8.18;6.68;;;;;;;;;;5012264;28;20041;-85
2023/01/22 12:54:53;;;;;;;7.78;5.95;;;;;;;;;;5015774;28;20033;-85
2023/01/22 12:57:21;;;;;;;7.30;5.80;;;;;;;;;;5015052;28;20463;-85
2023/01/22 12:59:56;;;;;;;7.18;5.82;;;;;;;;;;5021349;28;20037;-85
2023/01/22 13:02:29;;;;;;;7.30;6.03;;;;;;;;;;5014333;28;20068;-85
2023/01/22 13:04:55;;;;;;;9.38;6.45;;;;;;;;;;5029919;28;20404;-85
2023/01/22 13:07:20;;;;;;;6.97;5.70;;;;;;;;;;5018225;28;21394;-84
2023/01/22 13:09:45;;;;;;;7.70;5.78;;;;;;;;;;5017919;28;20041;-85
2023/01/22 13:12:27;;;;;;;8.05;6.45;;;;;;;;;;5018935;28;20479;-84
2023/01/22 13:14:52;;;;;;;8.52;6.57;;;;;;;;;;5014207;28;20045;-85
2023/01/22 13:17:19;;;;;;;8.85;6.88;;;;;;;;;;5029145;28;20264;-84
2023/01/22 13:19:46;;;;;;;8.40;6.30;;;;;;;;;;5031466;28;20053;-85
2023/01/22 13:22:16;;;;;;;9.82;6.30;;;;;;;;;;5014255;28;20458;-85
2023/01/22 13:24:51;;;;;;;8.68;6.65;;;;;;;;;;5014391;28;20420;-84
2023/01/22 13:27:22;;;;;;;6.70;5.70;;;;;;;;;;5028878;28;20037;-84
2023/01/22 13:29:47;;;;;;;7.53;6.15;;;;;;;;;;5014978;28;20515;-84
2023/01/22 13:32:17;;;;;;;7.80;6.20;;;;;;;;;;5013186;28;20068;-84
2023/01/22 13:34:42;;;;;;;7.53;5.70;;;;;;;;;;5030156;28;20809;-85
2023/01/22 13:37:19;;;;;;;7.82;5.95;;;;;;;;;;5010255;28;20040;-85
2023/01/22 13:39:44;;;;;;;7.70;5.60;;;;;;;;;;5032281;28;20425;-83
2023/01/22 13:42:11;;;;;;;7.07;5.20;;;;;;;;;;5031143;28;20141;-84
2023/01/22 13:44:37;;;;;;;7.97;5.95;;;;;;;;;;5012993;28;20064;-85
2023/01/22 13:47:03;;;;;;;8.20;6.20;;;;;;;;;;5031400;28;20038;-85
2023/01/22 13:49:33;;;;;;;7.82;6.18;;;;;;;;;;5016417;28;20087;-84
2023/01/22 13:52:03;;;;;;;8.20;5.97;;;;;;;;;;5015703;28;20044;-84
2023/01/22 13:54:33;;;;;;;7.83;5.93;;;;;;;;;;5031458;28;20534;-84
2023/01/22 13:56:59;;;;;;;9.25;6.90;;;;;;;;;;5014344;28;20034;-83
2023/01/22 13:59:34;;;;;;;8.50;6.43;;;;;;;;;;5018797;28;20061;-82
2023/01/22 14:02:18;;;;;;;8.05;6.22;;;;;;;22.38;100.00;120244.00;5008045;28;20042;-83
2023/01/22 14:04:44;;;;;;;7.50;6.30;;;;;;;;;;5033872;28;20057;-83
2023/01/22 14:07:16;;;;;;;9.55;6.53;;;;;;;;;;5007356;28;20038;-84
2023/01/22 14:09:42;;;;;;;8.35;5.90;;;;;;;;;;5033958;28;20068;-83
2023/01/22 14:12:14;;;;;;;7.80;6.10;;;;;;;;;;5017176;28;20033;-83
2023/01/22 14:14:40;;;;;;;7.82;5.97;;;;;;;;;;5030430;28;20041;-83
2023/01/22 14:17:05;;;;;;;7.32;5.82;;;;;;;;;;5028722;28;20705;-83
2023/01/22 14:19:31;;;;;;;8.18;5.35;;;;;;;;;;5015674;28;20056;-82
2023/01/22 14:21:56;;;;;;;8.32;5.93;;;;;;;;;;5018209;28;20761;-83
2023/01/22 14:24:21;;;;;;;7.80;6.03;;;;;;;;;;5033722;28;20056;-82
2023/01/22 14:26:47;;;;;;;7.37;5.63;;;;;;;;;;5035800;28;20088;-83
2023/01/22 14:29:12;;;;;;;7.03;5.63;;;;;;;;;;5014873;28;20106;-83
2023/01/22 14:31:37;;;;;;;8.40;4.97;;;;;;;;;;5014518;28;20445;-83
2023/01/22 14:34:02;;;;;;;7.30;5.47;;;;;;;;;;5021379;28;20046;-83
2023/01/22 14:36:27;;;;;;;7.03;5.10;;;;;;;;;;5036200;28;20040;-83
2023/01/22 14:38:54;;;;;;;7.40;5.50;;;;;;;;;;5016283;28;20307;-83
2023/01/22 14:41:19;;;;;;;7.97;5.97;;;;;;;;;;5022952;28;20044;-84